Time;durP1;ratioP1;P1;durP2;ratioP2;P2;SDS_P1;SDS_P2;PMS_P1;PMS_P2;Temp;Humidity;BMP_temperature;BMP_pressure;BME280_temperature;BME280_humidity;BME280_pressure;Samples;Min_cycle;Max_cycle;Signal;HPM_P1;HPM_P2
2023/10/30 00:00:21;;;;;;;21.87;13.48;;;;;;;10.55;93.87;99289.65;1752426;81;27329;-49
2023/10/30 00:02:49;;;;;;;21.52;13.28;;;;;;;10.56;93.97;99281.78;1752189;81;25605;-52
2023/10/30 00:05:16;;;;;;;17.15;9.68;;;;;;;10.55;94.12;99278.83;1752355;81;25357;-54
2023/10/30 00:10:24;;;;;;;15.88;9.70;;;;;;;10.57;93.84;99288.21;1742584;79;25579;-58
2023/10/30 00:12:51;;;;;;;15.65;10.43;;;;;;;10.59;93.96;99280.55;1731669;82;27312;-60
2023/10/30 00:15:18;;;;;;;12.98;8.95;;;;;;;10.61;93.83;99276.16;1731462;82;27110;-60
2023/10/30 00:17:44;;;;;;;15.95;9.28;;;;;;;10.61;93.61;99274.23;1731620;82;25444;-60
2023/10/30 00:20:10;;;;;;;15.13;9.63;;;;;;;10.63;93.73;99270.63;1701226;82;25472;-58
2023/10/30 00:22:37;;;;;;;16.77;9.50;;;;;;;10.63;93.62;99259.03;1703390;82;25490;-53
2023/10/30 00:25:05;;;;;;;16.45;10.45;;;;;;;10.64;93.44;99252.48;1731576;82;27329;-52
2023/10/30 00:27:31;;;;;;;15.50;9.43;;;;;;;10.64;93.41;99245.72;1700107;82;25439;-56
2023/10/30 00:29:58;;;;;;;18.25;9.45;;;;;;;10.62;93.22;99237.16;1731564;82;25554;-51
2023/10/30 00:32:24;;;;;;;16.00;9.13;;;;;;;10.61;93.25;99231.55;1731493;82;25429;-55
2023/10/30 00:34:50;;;;;;;15.58;9.30;;;;;;;10.59;93.27;99235.93;1731535;82;25622;-54
2023/10/30 00:37:16;;;;;;;19.85;9.33;;;;;;;10.60;93.27;99243.47;1731530;82;27284;-54
2023/10/30 00:39:43;;;;;;;16.37;9.35;;;;;;;10.59;93.23;99249.99;1731483;82;25453;-55
2023/10/30 00:42:10;;;;;;;15.63;9.85;;;;;;;10.59;93.20;99256.75;1731541;82;25566;-55
2023/10/30 00:44:39;;;;;;;14.70;8.48;;;;;;;10.57;93.11;99254.95;1731502;82;25624;-54
2023/10/30 00:47:07;;;;;;;17.37;9.13;;;;;;;10.56;93.09;99256.09;1731584;82;25435;-54
2023/10/30 00:49:33;;;;;;;16.00;9.70;;;;;;;10.55;93.13;99270.16;1731503;82;27380;-55
2023/10/30 00:52:00;;;;;;;16.10;9.13;;;;;;;10.55;93.01;99286.38;1731382;82;25611;-56
2023/10/30 00:54:26;;;;;;;12.58;9.00;;;;;;;10.57;93.07;99304.97;1731553;82;25560;-55
2023/10/30 00:56:52;;;;;;;13.28;8.35;;;;;;;10.57;92.93;99311.73;1731513;82;25413;-56
2023/10/30 00:59:18;;;;;;;14.10;8.93;;;;;;;10.57;92.88;99311.73;1731560;82;25567;-54
2023/10/30 01:01:44;;;;;;;15.98;8.90;;;;;;;10.59;92.90;99316.24;1731658;82;27917;-56
2023/10/30 01:04:11;;;;;;;13.65;9.03;;;;;;;10.59;92.98;99302.72;1731514;82;25578;-55
2023/10/30 01:06:37;;;;;;;12.90;9.03;;;;;;;10.60;92.95;99307.80;1731683;82;25370;-57
2023/10/30 01:09:03;;;;;;;17.57;9.43;;;;;;;10.61;92.91;99307.26;1731908;81;25433;-52
2023/10/30 01:11:29;;;;;;;15.98;9.23;;;;;;;10.61;92.82;99316.72;1734051;81;25565;-54
2023/10/30 01:13:55;;;;;;;12.75;8.80;;;;;;;10.62;92.89;99310.17;1734044;82;27359;-55
2023/10/30 01:16:22;;;;;;;16.40;8.95;;;;;;;10.62;92.70;99320.45;1733892;82;26054;-55
2023/10/30 01:18:48;;;;;;;15.75;9.23;;;;;;;10.61;92.77;99303.98;1733994;82;25365;-54
2023/10/30 01:21:17;;;;;;;14.47;9.15;;;;;;;10.61;92.69;99288.33;1701214;82;25680;-56
2023/10/30 01:23:45;;;;;;;16.60;9.35;;;;;;;10.59;92.65;99287.31;1734137;82;25606;-56
2023/10/30 01:26:11;;;;;;;15.30;8.98;;;;;;;10.58;92.60;99291.70;1734004;82;28287;-56
2023/10/30 01:28:37;;;;;;;15.32;9.03;;;;;;;10.54;92.52;99292.11;1733889;82;26000;-56
2023/10/30 01:31:05;;;;;;;16.52;9.15;;;;;;;10.51;92.57;99273.88;1734012;82;25448;-55
2023/10/30 01:33:33;;;;;;;15.32;9.40;;;;;;;10.49;92.60;99281.50;1733976;82;25857;-57
2023/10/30 01:35:59;;;;;;;12.45;8.40;;;;;;;10.45;92.68;99278.68;1733994;82;25630;-56
2023/10/30 01:38:26;;;;;;;15.80;8.93;;;;;;;10.43;92.88;99283.06;1733998;81;27321;-56
2023/10/30 01:40:54;;;;;;;16.77;8.90;;;;;;;10.40;92.81;99271.59;1702224;82;25594;-56
2023/10/30 01:43:32;;;;;;;14.73;8.78;;;;;;;10.38;92.85;99267.63;1734069;81;25426;-55
2023/10/30 01:46:00;;;;;;;15.15;8.63;;;;;;;10.36;92.90;99275.28;1734018;81;25513;-54
2023/10/30 01:48:31;;;;;;;14.38;8.95;;;;;;;10.32;93.03;99267.05;1733988;81;25578;-56
2023/10/30 01:51:02;;;;;;;13.72;8.90;;;;;;;10.29;92.95;99264.97;1733791;81;27427;-53
2023/10/30 01:53:32;;;;;;;18.95;8.85;;;;;;;10.28;93.08;99266.08;1733108;82;25677;-55
2023/10/30 01:56:00;;;;;;;18.12;8.83;;;;;;;10.26;93.19;99261.58;1733082;82;25693;-54
2023/10/30 01:58:29;;;;;;;13.50;8.27;;;;;;;10.22;93.19;99247.94;1733321;81;25740;-53
2023/10/30 02:00:58;;;;;;;17.97;8.63;;;;;;;10.20;93.38;99242.08;1702841;82;25711;-53
2023/10/30 02:03:24;;;;;;;15.30;8.15;;;;;;;10.18;93.50;99245.68;1732720;82;27891;-53
2023/10/30 02:05:54;;;;;;;17.40;8.85;;;;;;;10.15;93.74;99237.42;1732921;82;25636;-56
2023/10/30 02:08:22;;;;;;;16.37;8.33;;;;;;;10.11;93.74;99244.05;1733190;81;25661;-54
2023/10/30 02:10:48;;;;;;;18.32;9.10;;;;;;;10.09;93.88;99249.00;1733198;81;25720;-54
2023/10/30 02:13:17;;;;;;;11.90;7.80;;;;;;;10.07;93.93;99255.30;1733944;82;25578;-53
2023/10/30 02:15:43;;;;;;;11.57;8.25;;;;;;;10.05;94.02;99246.75;1733979;82;27307;-53
2023/10/30 02:18:10;;;;;;;14.95;8.80;;;;;;;10.03;94.12;99242.23;1733943;82;25547;-56
2023/10/30 02:20:40;;;;;;;17.37;8.73;;;;;;;10.01;94.14;99243.91;1733931;81;25547;-53
2023/10/30 02:23:08;;;;;;;11.95;8.43;;;;;;;10.01;94.12;99264.18;1734068;81;25582;-57
2023/10/30 02:25:34;;;;;;;13.40;7.90;;;;;;;9.99;94.25;99260.21;1702164;82;25656;-58
2023/10/30 02:28:00;;;;;;;19.12;7.65;;;;;;;9.98;94.44;99254.59;1733963;81;27343;-58
2023/10/30 02:30:27;;;;;;;14.70;8.20;;;;;;;9.97;94.41;99259.75;1733869;82;25688;-58
2023/10/30 02:32:54;;;;;;;11.90;7.75;;;;;;;9.95;94.58;99266.84;1733942;82;25583;-58
2023/10/30 02:35:21;;;;;;;13.03;8.10;;;;;;;9.93;94.68;99257.47;1733909;82;25570;-59
2023/10/30 02:37:50;;;;;;;14.38;8.63;;;;;;;9.91;94.73;99280.21;1734007;82;25434;-58
2023/10/30 02:40:17;;;;;;;12.47;8.33;;;;;;;9.91;95.03;99284.83;1733962;81;27424;-58
2023/10/30 02:42:46;;;;;;;15.10;8.28;;;;;;;9.91;94.96;99292.94;1733810;82;25818;-58
2023/10/30 02:45:12;;;;;;;11.48;7.70;;;;;;;9.90;95.05;99287.30;1733918;81;25469;-58
2023/10/30 02:47:39;;;;;;;17.02;7.92;;;;;;;9.90;94.92;99281.89;1733867;81;25520;-58
2023/10/30 02:50:10;;;;;;;11.12;8.05;;;;;;;9.88;94.98;99285.48;1733951;82;25402;-59
2023/10/30 02:52:36;;;;;;;17.20;8.60;;;;;;;9.88;94.95;99296.29;1734005;81;27399;-56
2023/10/30 02:55:05;;;;;;;12.00;7.78;;;;;;;9.85;94.80;99290.97;1733932;82;25520;-58
2023/10/30 02:57:32;;;;;;;15.05;8.38;;;;;;;9.84;94.77;99274.55;1733751;82;32970;-59
2023/10/30 02:59:58;;;;;;;13.78;7.97;;;;;;;9.82;94.75;99263.27;1733478;82;25536;-59
2023/10/30 03:02:24;;;;;;;10.95;7.53;;;;;;;9.80;94.71;99256.05;1733928;82;25386;-55
2023/10/30 03:04:50;;;;;;;16.62;8.28;;;;;;;9.78;94.67;99241.31;1733907;82;27390;-57
2023/10/30 03:07:16;;;;;;;12.18;7.47;;;;;;;9.76;94.64;99247.61;1733833;82;25524;-56
2023/10/30 03:09:43;;;;;;;15.30;7.87;;;;;;;9.75;94.72;99258.17;1733603;81;25826;-59
2023/10/30 03:12:09;;;;;;;13.62;7.62;;;;;;;9.72;94.63;99259.59;1702906;82;26149;-59
2023/10/30 03:14:37;;;;;;;15.35;8.28;;;;;;;9.70;94.86;99262.66;1731550;82;25442;-54
2023/10/30 03:17:05;;;;;;;13.68;7.72;;;;;;;9.67;94.69;99255.20;1731497;82;29456;-57
2023/10/30 03:19:33;;;;;;;10.27;8.00;;;;;;;9.65;94.90;99251.23;1731798;82;25555;-56
2023/10/30 03:22:00;;;;;;;14.25;7.83;;;;;;;9.63;95.03;99261.58;1731592;82;25591;-58
2023/10/30 03:24:26;;;;;;;12.25;7.83;;;;;;;9.61;95.38;99264.60;1731452;82;25389;-54
2023/10/30 03:26:54;;;;;;;12.00;7.45;;;;;;;9.63;95.59;99253.48;1705049;82;25534;-58
2023/10/30 03:29:22;;;;;;;13.25;7.50;;;;;;;9.63;95.84;99249.42;1731580;82;27252;-58
2023/10/30 03:31:52;;;;;;;16.82;7.53;;;;;;;9.63;95.90;99246.16;1731499;82;25622;-58
2023/10/30 03:34:18;;;;;;;11.78;7.80;;;;;;;9.65;95.97;99239.09;1731494;82;25524;-58
2023/10/30 03:36:44;;;;;;;14.18;8.18;;;;;;;9.65;96.12;99234.50;1731521;82;25623;-58
2023/10/30 03:39:10;;;;;;;10.68;7.30;;;;;;;9.65;96.26;99221.00;1731540;82;25366;-58
2023/10/30 03:41:37;;;;;;;12.82;8.03;;;;;;;9.66;97.03;99230.66;1704658;82;27329;-60
2023/10/30 03:44:08;;;;;;;12.40;7.72;;;;;;;9.69;96.79;99233.28;1731487;82;25534;-56
2023/10/30 03:46:34;;;;;;;12.05;7.75;;;;;;;9.72;97.07;99228.55;1731596;82;25599;-58
2023/10/30 03:49:00;;;;;;;19.00;7.45;;;;;;;9.75;96.95;99228.46;1731479;82;25425;-58
2023/10/30 03:51:26;;;;;;;19.62;8.28;;;;;;;9.78;96.78;99231.86;1731575;82;25551;-58
2023/10/30 03:53:53;;;;;;;12.25;7.75;;;;;;;9.80;96.62;99235.02;1731561;82;27866;-58
2023/10/30 03:56:19;;;;;;;11.22;7.28;;;;;;;9.80;96.45;99233.09;1731455;82;25661;-57
2023/10/30 03:58:45;;;;;;;9.48;6.83;;;;;;;9.80;96.17;99228.27;1731519;82;25370;-58
2023/10/30 04:01:11;;;;;;;12.90;7.25;;;;;;;9.77;96.09;99228.34;1731587;82;25369;-58
2023/10/30 04:03:38;;;;;;;13.65;7.67;;;;;;;9.75;96.11;99221.71;1731512;82;25582;-55
2023/10/30 04:06:06;;;;;;;14.73;7.53;;;;;;;9.73;96.31;99217.98;1731512;82;27324;-58
2023/10/30 04:08:32;;;;;;;12.47;7.35;;;;;;;9.71;96.05;99226.41;1731458;82;25438;-56
2023/10/30 04:10:58;;;;;;;13.93;8.13;;;;;;;9.69;96.03;99230.58;1732580;81;25631;-57
2023/10/30 04:13:25;;;;;;;12.70;7.87;;;;;;;9.68;96.24;99233.81;1733865;82;25904;-57
2023/10/30 04:15:52;;;;;;;16.15;8.05;;;;;;;9.68;96.40;99223.02;1733893;82;25428;-56
2023/10/30 04:18:20;;;;;;;11.78;7.72;;;;;;;9.68;96.32;99226.28;1733909;82;29535;-58
2023/10/30 04:20:46;;;;;;;11.80;6.97;;;;;;;9.67;96.24;99241.70;1733879;81;25878;-57
2023/10/30 04:23:13;;;;;;;13.50;7.62;;;;;;;9.67;96.48;99231.44;1701550;82;25589;-58
2023/10/30 04:25:39;;;;;;;11.57;7.10;;;;;;;9.63;96.21;99229.96;1702455;82;27775;-57
2023/10/30 04:28:05;;;;;;;15.35;8.45;;;;;;;9.63;96.16;99212.98;1733904;82;25579;-58
2023/10/30 04:30:31;;;;;;;13.88;7.72;;;;;;;9.61;96.28;99207.91;1733870;81;27344;-55
2023/10/30 04:33:00;;;;;;;12.20;7.60;;;;;;;9.59;96.28;99208.80;1733774;82;25573;-59
2023/10/30 04:35:28;;;;;;;9.70;7.55;;;;;;;9.57;96.29;99207.00;1734216;81;25468;-57
2023/10/30 04:37:56;;;;;;;10.65;7.47;;;;;;;9.55;96.39;99209.20;1734020;82;25576;-57
2023/10/30 04:40:22;;;;;;;13.22;7.53;;;;;;;9.53;96.32;99223.06;1734028;82;25531;-58
2023/10/30 04:42:48;;;;;;;14.40;7.85;;;;;;;9.51;96.53;99252.27;1733997;82;27429;-59
2023/10/30 04:45:14;;;;;;;15.05;8.13;;;;;;;9.50;96.51;99251.24;1733858;82;27153;-57
2023/10/30 04:47:40;;;;;;;9.83;7.05;;;;;;;9.49;96.66;99258.56;1734067;81;25641;-58
2023/10/30 04:50:10;;;;;;;10.20;7.85;;;;;;;9.47;96.48;99248.66;1733984;81;25582;-59
2023/10/30 04:52:36;;;;;;;16.32;8.25;;;;;;;9.45;96.48;99247.38;1734234;82;25544;-56
2023/10/30 04:55:02;;;;;;;14.43;7.67;;;;;;;9.43;96.46;99255.02;1733968;82;29691;-59
2023/10/30 04:57:28;;;;;;;13.78;7.85;;;;;;;9.41;96.56;99254.56;1733960;81;25547;-57
2023/10/30 04:59:54;;;;;;;12.47;7.90;;;;;;;9.38;96.48;99253.86;1734028;82;25448;-57
2023/10/30 05:02:21;;;;;;;12.60;7.72;;;;;;;9.35;96.64;99248.00;1733949;81;25422;-58
2023/10/30 05:04:47;;;;;;;13.55;7.90;;;;;;;9.30;96.61;99249.53;1702264;82;25473;-58
2023/10/30 05:07:13;;;;;;;12.05;7.37;;;;;;;9.30;96.97;99258.20;1701829;82;27585;-57
2023/10/30 05:09:39;;;;;;;14.95;7.97;;;;;;;9.26;97.01;99271.55;1734029;81;25449;-57
2023/10/30 05:12:09;;;;;;;13.25;7.42;;;;;;;9.25;96.91;99260.52;1732024;81;25578;-56
2023/10/30 05:14:35;;;;;;;11.48;8.03;;;;;;;9.25;97.07;99248.94;1731584;82;25419;-57
2023/10/30 05:17:01;;;;;;;15.93;8.88;;;;;;;9.22;97.45;99243.62;1704932;82;25470;-56
2023/10/30 05:19:27;;;;;;;14.50;7.90;;;;;;;9.20;97.33;99254.52;1731645;82;27380;-56
2023/10/30 05:21:54;;;;;;;9.98;6.87;;;;;;;9.19;97.42;99272.59;1731581;82;25565;-54
2023/10/30 05:24:23;;;;;;;13.18;7.87;;;;;;;9.19;97.34;99292.05;1731693;82;25449;-57
2023/10/30 05:26:52;;;;;;;14.47;7.20;;;;;;;9.18;97.59;99305.30;1731034;82;25657;-56
2023/10/30 05:29:20;;;;;;;11.85;7.85;;;;;;;9.18;97.71;99291.80;1731655;82;25444;-58
2023/10/30 05:31:46;;;;;;;13.03;7.47;;;;;;;9.14;97.49;99305.16;1731592;82;29517;-58
2023/10/30 05:34:14;;;;;;;12.73;7.45;;;;;;;9.13;97.81;99301.67;1731513;82;25375;-56
2023/10/30 05:36:40;;;;;;;14.07;7.33;;;;;;;9.13;98.05;99307.63;1731586;82;25619;-57
2023/10/30 05:39:07;;;;;;;11.57;7.30;;;;;;;9.12;97.75;99307.38;1731609;82;25368;-58
2023/10/30 05:41:33;;;;;;;10.35;7.55;;;;;;;9.11;98.21;99293.11;1731647;82;25656;-58
2023/10/30 05:43:59;;;;;;;13.15;7.12;;;;;;;9.08;98.01;99280.27;1731632;82;27406;-58
2023/10/30 05:46:25;;;;;;;10.43;7.25;;;;;;;9.08;97.97;99286.23;1731515;82;25347;-57
2023/10/30 05:48:51;;;;;;;9.85;7.00;;;;;;;9.07;98.20;99297.55;1731633;82;29602;-57
2023/10/30 05:51:17;;;;;;;12.28;8.00;;;;;;;9.08;98.51;99305.89;1731573;82;25448;-56
2023/10/30 05:53:43;;;;;;;10.93;7.35;;;;;;;9.08;98.53;99321.30;1731623;82;25580;-58
2023/10/30 05:56:10;;;;;;;11.50;7.33;;;;;;;9.07;98.52;99309.70;1731622;82;27368;-55
2023/10/30 05:58:36;;;;;;;11.18;7.80;;;;;;;9.07;98.75;99316.44;1731542;82;25604;-58
2023/10/30 06:01:02;;;;;;;11.83;7.58;;;;;;;9.08;98.55;99322.64;1731699;82;25367;-57
2023/10/30 06:03:28;;;;;;;11.28;6.90;;;;;;;9.08;98.58;99321.30;1704850;82;25471;-57
2023/10/30 06:05:57;;;;;;;11.80;7.62;;;;;;;9.07;98.64;99316.44;1731585;82;25533;-59
2023/10/30 06:08:23;;;;;;;12.60;7.47;;;;;;;9.10;98.90;99320.41;1731595;82;27334;-58
2023/10/30 06:10:51;;;;;;;13.05;7.62;;;;;;;9.12;98.75;99323.01;1731662;81;25444;-57
2023/10/30 06:13:17;;;;;;;11.83;7.45;;;;;;;9.15;98.81;99325.63;1733922;82;25492;-55
2023/10/30 06:15:43;;;;;;;10.10;7.35;;;;;;;9.16;98.90;99333.97;1733937;82;25838;-58
2023/10/30 06:18:10;;;;;;;11.20;6.95;;;;;;;9.18;99.02;99339.83;1734003;82;25545;-54
2023/10/30 06:20:38;;;;;;;14.53;8.18;;;;;;;9.21;99.03;99356.73;1733950;82;27308;-57
2023/10/30 06:23:04;;;;;;;14.40;7.60;;;;;;;9.24;99.04;99364.16;1733874;82;25619;-57
2023/10/30 06:25:30;;;;;;;12.28;7.92;;;;;;;9.26;99.11;99364.65;1733871;81;25573;-53
2023/10/30 06:27:56;;;;;;;9.08;7.22;;;;;;;9.29;99.15;99361.28;1733924;82;25533;-53
2023/10/30 06:30:22;;;;;;;13.08;7.58;;;;;;;9.31;99.14;99355.03;1733978;82;25458;-57
2023/10/30 06:32:48;;;;;;;12.95;7.70;;;;;;;9.35;99.25;99361.91;1733958;82;27416;-57
2023/10/30 06:35:16;;;;;;;12.82;7.10;;;;;;;9.39;99.27;99359.36;1733884;81;25473;-55
2023/10/30 06:37:42;;;;;;;13.28;7.83;;;;;;;9.42;99.29;99367.60;1733912;82;25422;-54
2023/10/30 06:40:11;;;;;;;14.45;7.72;;;;;;;9.47;99.42;99378.22;1733923;82;25580;-56
2023/10/30 06:42:37;;;;;;;11.83;7.92;;;;;;;9.53;99.53;99373.42;1734144;82;25206;-54
2023/10/30 06:45:07;;;;;;;11.20;7.20;;;;;;;9.59;99.73;99376.19;1733893;82;27917;-57
2023/10/30 06:47:34;;;;;;;13.25;7.92;;;;;;;9.66;99.65;99381.86;1733880;82;25434;-54
2023/10/30 06:50:00;;;;;;;12.23;7.37;;;;;;;9.73;99.77;99384.84;1733947;82;25546;-58
2023/10/30 06:52:26;;;;;;;11.90;6.67;;;;;;;9.80;99.84;99391.09;1733907;82;25377;-53
2023/10/30 06:54:55;;;;;;;13.80;7.12;;;;;;;9.84;99.60;99375.83;1734017;81;25450;-55
2023/10/30 06:57:21;;;;;;;11.28;7.55;;;;;;;9.92;99.65;99374.19;1734090;82;27477;-55
2023/10/30 06:59:52;;;;;;;10.58;7.45;;;;;;;9.96;99.61;99376.48;1733835;81;25513;-56
2023/10/30 07:02:20;;;;;;;12.00;7.28;;;;;;;10.06;99.99;99373.94;1733071;81;25673;-57
2023/10/30 07:04:49;;;;;;;12.07;6.73;;;;;;;10.37;99.66;99396.59;1733597;82;25733;-56
2023/10/30 07:07:19;;;;;;;12.70;6.75;;;;;;;10.37;99.66;99396.59;1733890;82;25563;-56
2023/10/30 07:09:46;;;;;;;14.70;6.75;;;;;;;10.42;99.96;99382.88;1734008;81;27329;-53
2023/10/30 07:12:15;;;;;;;17.32;7.65;;;;;;;10.61;99.95;99377.00;1748686;81;25439;-55
2023/10/30 07:14:44;;;;;;;10.85;7.03;;;;;;;10.84;100.00;99380.14;1731266;82;25408;-55
2023/10/30 07:17:13;;;;;;;13.75;6.80;;;;;;;11.25;99.45;99384.98;1763180;81;26091;-56
2023/10/30 07:19:43;;;;;;;15.63;6.40;;;;;;;11.25;99.45;99384.98;1763162;81;25581;-53
2023/10/30 07:22:12;;;;;;;11.63;6.65;;;;;;;11.45;99.99;99402.28;1763134;80;28012;-55
2023/10/30 07:24:38;;;;;;;10.65;6.55;;;;;;;11.63;98.27;99394.73;1763015;80;25615;-56
2023/10/30 07:27:08;;;;;;;15.13;7.12;;;;;;;11.82;98.74;99382.78;1762922;80;25472;-58
2023/10/30 07:29:38;;;;;;;11.65;6.83;;;;;;;12.15;99.91;99390.00;1745821;81;25573;-58
2023/10/30 07:32:08;;;;;;;10.85;6.20;;;;;;;12.47;99.42;99392.88;1763120;80;25897;-59
2023/10/30 07:34:37;;;;;;;13.50;5.83;;;;;;;12.84;98.84;99391.41;1763097;80;27319;-58
2023/10/30 07:37:06;;;;;;;12.10;6.80;;;;;;;13.18;97.97;99398.71;1763018;81;25528;-57
2023/10/30 07:39:32;;;;;;;13.98;6.08;;;;;;;13.47;98.43;99404.33;1762980;81;25525;-58
2023/10/30 07:42:07;;;;;;;12.03;5.62;;;;;;;13.83;95.92;99410.05;1762869;81;25612;-58
2023/10/30 07:44:36;;;;;;;11.88;5.50;;;;;;;14.12;93.64;99420.23;1701361;84;25562;-59
2023/10/30 07:47:05;;;;;;;10.98;5.20;;;;;;;14.31;92.18;99423.56;1701458;84;27338;-58
2023/10/30 07:49:34;;;;;;;10.68;4.80;;;;;;;14.56;91.40;99428.77;1701471;84;25527;-58
2023/10/30 07:52:01;;;;;;;9.90;5.10;;;;;;;14.81;91.53;99429.30;1701463;84;25529;-67
2023/10/30 07:54:27;;;;;;;9.68;4.87;;;;;;;15.18;90.22;99431.58;1701408;84;25531;-68
2023/10/30 07:56:56;;;;;;;8.00;5.33;;;;;;;15.49;89.89;99431.14;1701417;84;25650;-68
2023/10/30 07:59:25;;;;;;;;;;;;;;;15.82;86.54;99427.84;1704017;84;25807;-67
2023/10/30 08:01:54;;;;;;;8.70;4.93;;;;;;;16.15;88.23;99425.03;1701771;84;25664;-69
2023/10/30 08:04:22;;;;;;;9.18;4.62;;;;;;;16.38;84.68;99417.38;1701612;84;25238;-67
2023/10/30 08:06:48;;;;;;;8.88;4.30;;;;;;;16.85;86.04;99413.87;1701303;84;25612;-68
2023/10/30 08:09:16;;;;;;;8.33;4.35;;;;;;;17.35;84.53;99411.69;1701445;84;25490;-68
2023/10/30 08:11:44;;;;;;;7.85;4.92;;;;;;;17.49;80.09;99415.13;1695086;83;27396;-69
2023/10/30 08:14:11;;;;;;;7.87;4.83;;;;;;;17.58;77.84;99413.44;1661053;86;25671;-69
2023/10/30 08:16:38;;;;;;;10.65;4.10;;;;;;;17.69;78.90;99421.94;1636966;87;25534;-70
2023/10/30 08:19:05;;;;;;;10.28;4.42;;;;;;;17.89;78.38;99417.62;1665321;86;25701;-66
2023/10/30 08:21:31;;;;;;;8.30;4.58;;;;;;;18.16;77.91;99420.93;1662470;83;25381;-67
2023/10/30 08:23:57;;;;;;;8.65;3.77;;;;;;;18.46;78.06;99432.27;1701531;84;27311;-67
2023/10/30 08:26:23;;;;;;;10.85;4.85;;;;;;;18.99;75.45;99428.20;1716347;83;25444;-67
2023/10/30 08:28:50;;;;;;;9.50;3.90;;;;;;;19.06;76.00;99426.85;1722128;83;25402;-68
2023/10/30 08:31:17;;;;;;;13.00;4.20;;;;;;;19.29;73.80;99432.58;1722283;83;25504;-67
2023/10/30 08:33:44;;;;;;;8.10;4.62;;;;;;;19.32;72.48;99422.98;1722343;83;25630;-67
2023/10/30 08:36:10;;;;;;;7.00;3.77;;;;;;;19.39;72.95;99422.21;1722249;83;27923;-68
2023/10/30 08:38:38;;;;;;;7.12;4.28;;;;;;;19.63;72.62;99422.63;1695559;82;25678;-67
2023/10/30 08:41:04;;;;;;;6.33;3.80;;;;;;;19.99;70.94;99427.56;1722218;82;25388;-66
2023/10/30 08:43:30;;;;;;;9.03;3.90;;;;;;;20.20;70.48;99428.11;1722206;83;25626;-66
2023/10/30 08:45:56;;;;;;;7.20;3.65;;;;;;;20.36;70.12;99438.66;1722255;82;25572;-67
2023/10/30 08:48:23;;;;;;;13.05;3.85;;;;;;;20.56;67.89;99447.23;1722255;83;27285;-67
2023/10/30 08:50:49;;;;;;;6.62;3.67;;;;;;;20.75;68.47;99449.37;1722078;83;25656;-67
2023/10/30 08:53:15;;;;;;;7.65;3.40;;;;;;;20.92;67.68;99445.76;1722171;83;25631;-66
2023/10/30 08:55:42;;;;;;;8.23;3.27;;;;;;;20.97;66.47;99439.84;1722004;83;25670;-68
2023/10/30 08:58:08;;;;;;;5.92;3.47;;;;;;;21.02;65.52;99441.40;1722147;83;25578;-67
2023/10/30 09:00:36;;;;;;;8.55;3.27;;;;;;;21.12;64.91;99446.66;1722172;83;28011;-68
2023/10/30 09:03:03;;;;;;;6.62;3.17;;;;;;;21.20;64.31;99447.59;1722176;83;25692;-67
2023/10/30 09:05:29;;;;;;;6.12;2.92;;;;;;;21.26;64.92;99440.46;1722154;83;25493;-68
2023/10/30 09:07:56;;;;;;;6.28;2.90;;;;;;;21.57;65.53;99442.66;1722105;83;25650;-67
2023/10/30 09:10:26;;;;;;;8.15;2.42;;;;;;;21.78;63.63;99441.72;1722075;83;25619;-66
2023/10/30 09:12:51;;;;;;;7.50;2.52;;;;;;;21.70;62.61;99444.34;1698113;82;28123;-67
2023/10/30 09:15:18;;;;;;;5.05;2.27;;;;;;;21.57;61.82;99439.33;1731535;82;25261;-66
2023/10/30 09:17:46;;;;;;;6.83;2.37;;;;;;;21.73;63.37;99444.31;1731557;82;25381;-69
2023/10/30 09:20:13;;;;;;;4.87;2.52;;;;;;;22.13;61.96;99448.09;1731450;82;25648;-58
2023/10/30 09:22:39;;;;;;;5.53;1.90;;;;;;;22.34;61.86;99441.03;1731463;82;25555;-61
2023/10/30 09:25:07;;;;;;;5.70;2.27;;;;;;;22.66;60.88;99439.89;1731492;82;27427;-62
2023/10/30 09:27:35;;;;;;;6.28;2.00;;;;;;;22.80;60.31;99447.78;1731401;82;25684;-67
2023/10/30 09:30:03;;;;;;;4.17;2.05;;;;;;;22.97;58.42;99452.89;1731485;82;25549;-72
2023/10/30 09:32:29;;;;;;;4.90;1.90;;;;;;;22.91;57.55;99468.52;1731500;82;25671;-60
2023/10/30 09:34:58;;;;;;;4.17;2.10;;;;;;;22.99;57.65;99470.59;1731520;82;25640;-62
2023/10/30 09:37:25;;;;;;;2.85;2.12;;;;;;;23.46;57.96;99476.88;1731563;82;27365;-59
2023/10/30 09:39:52;;;;;;;4.12;1.82;;;;;;;24.11;57.03;99486.35;1731319;82;25246;-59
2023/10/30 09:42:19;;;;;;;5.58;1.90;;;;;;;24.84;55.27;99487.20;1731469;82;25567;-58
2023/10/30 09:44:46;;;;;;;5.12;2.22;;;;;;;25.24;53.85;99479.63;1731407;82;25615;-59
2023/10/30 09:47:15;;;;;;;5.08;1.80;;;;;;;25.51;53.52;99482.22;1731461;82;25430;-59
2023/10/30 09:49:44;;;;;;;2.65;1.80;;;;;;;25.72;51.55;99487.08;1731562;82;27570;-59
2023/10/30 09:52:14;;;;;;;7.83;2.00;;;;;;;25.58;50.44;99484.66;1731434;82;25516;-60
2023/10/30 09:54:44;;;;;;;4.35;2.05;;;;;;;25.59;50.50;99486.20;1731404;82;25579;-58
2023/10/30 09:57:13;;;;;;;4.37;2.52;;;;;;;25.41;50.45;99490.78;1731356;82;25610;-59
2023/10/30 09:59:44;;;;;;;2.12;1.87;;;;;;;25.36;50.31;99500.36;1731457;82;25396;-60
2023/10/30 10:02:10;;;;;;;4.15;2.27;;;;;;;25.20;50.04;99501.08;1731543;82;27375;-61
2023/10/30 10:04:41;;;;;;;4.28;2.30;;;;;;;25.17;49.27;99495.02;1731358;82;25556;-59
2023/10/30 10:07:11;;;;;;;3.58;2.33;;;;;;;25.25;49.76;99501.96;1731359;82;25670;-60
2023/10/30 10:10:00;;;;;;;4.90;2.50;;;;;;;25.20;49.43;99489.21;1731451;82;25792;-58
2023/10/30 10:12:30;;;;;;;5.55;2.10;;;;;;;25.20;48.95;99493.36;1728875;82;25650;-58
2023/10/30 10:14:58;;;;;;;4.33;2.60;;;;;;;25.12;48.73;99501.83;1718298;83;27504;-59
2023/10/30 10:17:24;;;;;;;4.67;2.35;;;;;;;24.96;48.45;99492.88;1718161;83;25823;-59
2023/10/30 10:19:51;;;;;;;8.48;2.65;;;;;;;24.92;48.69;99497.69;1718188;83;25454;-61
2023/10/30 10:22:31;;;;;;;4.80;2.27;;;;;;;24.86;48.05;99488.34;1718156;83;26346;-60
2023/10/30 10:24:59;;;;;;;6.87;2.67;;;;;;;24.61;47.14;99504.03;1718134;82;25636;-61
2023/10/30 10:27:27;;;;;;;6.53;2.10;;;;;;;24.38;48.77;99509.76;1718379;83;28010;-63
2023/10/30 10:29:56;;;;;;;3.87;2.52;;;;;;;24.23;48.68;99517.52;1718361;83;25636;-57
2023/10/30 10:32:26;;;;;;;4.87;2.55;;;;;;;23.91;47.70;99519.42;1718270;83;25544;-55
2023/10/30 10:35:05;;;;;;;3.77;2.00;;;;;;;23.48;48.88;99517.28;1717499;83;25630;-56
2023/10/30 10:37:32;;;;;;;;;;;;;;;23.34;48.93;99520.22;1720744;83;25589;-65
2023/10/30 10:40:01;;;;;;;2.92;1.50;;;;;;;23.08;48.66;99526.05;1718216;83;28244;-55
2023/10/30 10:42:28;;;;;;;5.78;1.98;;;;;;;22.83;49.34;99525.53;1718225;82;25464;-56
2023/10/30 10:44:59;;;;;;;4.53;1.95;;;;;;;22.65;49.67;99522.38;1718188;83;25393;-53
2023/10/30 10:47:25;;;;;;;3.58;1.98;;;;;;;22.47;49.97;99528.06;1718229;82;25688;-55
2023/10/30 10:49:53;;;;;;;5.08;1.98;;;;;;;22.24;49.83;99519.01;1718236;83;25475;-55
2023/10/30 10:52:21;;;;;;;3.02;1.90;;;;;;;21.93;50.10;99507.05;1718150;83;28201;-53
2023/10/30 10:55:03;;;;;;;3.73;2.00;;;;;;;21.73;50.50;99509.58;1718344;83;25696;-53
2023/10/30 10:57:54;;;;;;;2.62;1.80;;;;;;;21.52;50.45;99499.48;1664336;83;25610;-52
2023/10/30 11:00:24;;;;;;;6.33;2.08;;;;;;;21.31;50.86;99503.12;1716910;83;25804;-56
2023/10/30 11:02:51;;;;;;;5.22;2.20;;;;;;;21.08;51.46;99489.30;1718313;82;25491;-55
2023/10/30 11:05:19;;;;;;;4.15;2.35;;;;;;;21.08;52.67;99495.56;1718213;82;26649;-52
2023/10/30 11:08:12;;;;;;;4.15;2.08;;;;;;;21.01;52.49;99498.92;1718093;83;25572;-53
2023/10/30 11:10:49;;;;;;;4.40;2.02;;;;;;;20.84;52.62;99490.94;1718323;83;25410;-56
2023/10/30 11:13:46;;;;;;;46.85;37.63;;;;;;;20.70;52.29;99492.58;1723321;82;25844;-57
2023/10/30 11:16:22;;;;;;;142.55;124.97;;;;;;;20.80;54.49;99490.95;1693795;84;25501;-55
2023/10/30 11:18:52;;;;;;;7.00;4.28;;;;;;;21.29;54.49;99495.87;1693939;84;27929;-55
2023/10/30 11:21:24;;;;;;;4.30;2.20;;;;;;;21.55;54.66;99498.69;1693778;84;25663;-57
2023/10/30 11:23:58;;;;;;;6.17;2.15;;;;;;;21.97;53.88;99503.09;1693934;84;25679;-53
2023/10/30 11:26:44;;;;;;;3.15;1.95;;;;;;;21.99;52.55;99490.30;1693811;84;25660;-55
2023/10/30 11:29:19;;;;;;;4.97;1.87;;;;;;;21.99;52.24;99495.81;1693942;84;25719;-55
2023/10/30 11:31:59;;;;;;;5.00;1.85;;;;;;;22.09;52.40;99496.92;1693880;83;27437;-55
2023/10/30 11:34:34;;;;;;;7.85;2.10;;;;;;;22.44;53.19;99501.92;1693562;84;25759;-52
2023/10/30 11:37:09;;;;;;;4.17;1.70;;;;;;;22.75;50.59;99500.03;1693878;84;25667;-57